Seabulk Trader — KNJK — position and weather

sailwx.info

Track history (hours):
 
Tides and Currents Weather Stations Pressure Air Temp Water Temp Dewpoint Dewpoint Depression Visibility Wind Speed Wind Dir Waves Ship Positions

Seabulk Trader

Owner: Seabulk Tankers Inc, Fort Lauderdale, FL. More information available from US FCC via Universal Licensing System and Coast Guard Vessel Documentation Center.

Last reported at 2018-Mar-05 21:20 UTC. Time now 2018-Jun-18 13:00 UTC.
Position N 26°21' W 079°24'.
Warning: this ship's position is months out of date.

Type: Tanker. MMSI: 303105000.

Date/timePositionNaut miles runAvg speedWind from/ knotsBaromVisibWave heightAir tempDewpointWater temp
2018-Mar-05 21:20N 26°21' W 079°24'515.5
2018-Mar-05 21:00N 26°19' W 079°29'815.5
2018-Mar-05 20:31N 26°17' W 079°37'815.4
2018-Mar-05 20:01N 26°14' W 079°45'815.3
2018-Mar-05 19:30N 26°10' W 079°53'714.1
2018-Mar-05 19:00N 26°07' W 080°00'510.0
2018-Mar-05 18:31N 26°06' W 080°05'2 3.5
2018-Mar-05 17:59N 26°05' W 080°07'0 0.0
2018-Mar-05 17:29N 26°05' W 080°07'0 0.0
2018-Mar-05 16:59N 26°05' W 080°07'0 0.0
2018-Mar-05 16:29N 26°05' W 080°07'0 0.0
2018-Mar-05 15:59N 26°05' W 080°07'0 0.0
2018-Mar-05 15:29N 26°05' W 080°07'0 0.0
2018-Mar-05 14:59N 26°05' W 080°07'0 0.0
2018-Mar-05 14:29N 26°05' W 080°07'0 0.0
2018-Mar-05 13:59N 26°05' W 080°07'0 0.0
2018-Mar-05 13:29N 26°05' W 080°07'0 0.0
2018-Mar-05 12:59N 26°05' W 080°07'0 0.0
2018-Mar-05 12:29N 26°05' W 080°07'0 0.0
2018-Mar-05 11:59N 26°05' W 080°07'0 0.0
2018-Mar-05 11:29N 26°05' W 080°07'0 0.0
2018-Mar-05 10:53N 26°05' W 080°07'0 0.0
2018-Mar-05 10:29N 26°05' W 080°07'0 0.0
2018-Mar-05 09:53N 26°05' W 080°07'0 0.0
2018-Mar-05 09:29N 26°05' W 080°07'0 0.0
2018-Mar-05 08:53N 26°05' W 080°07'0 0.0
2018-Mar-05 08:23N 26°05' W 080°07'0 0.0
2018-Mar-05 07:53N 26°05' W 080°07'0 0.0
2018-Mar-05 07:23N 26°05' W 080°07'0 0.0
2018-Mar-05 06:50N 26°05' W 080°07'0 0.0
2018-Mar-05 06:25N 26°05' W 080°07'0 0.0
2018-Mar-05 05:55N 26°05' W 080°07'0 0.0
2018-Mar-05 05:28N 26°05' W 080°07'0 0.0
2018-Mar-05 04:58N 26°05' W 080°07'0 0.0
2018-Mar-05 04:29N 26°05' W 080°07'0 0.0
2018-Mar-05 03:58N 26°05' W 080°07'0 0.0
2018-Mar-05 03:28N 26°05' W 080°07'0 0.0
2018-Mar-05 02:58N 26°05' W 080°07'0 0.0
2018-Mar-05 02:28N 26°05' W 080°07'0 0.0
2018-Mar-05 01:58N 26°05' W 080°07'0 0.0
2018-Mar-05 01:28N 26°05' W 080°07'0 0.0
2018-Mar-05 00:58N 26°05' W 080°07'0 0.0
2018-Mar-05 00:25N 26°05' W 080°07'0 0.0
2018-Mar-04 23:58N 26°05' W 080°07'0 0.0
2018-Mar-04 23:28N 26°05' W 080°07'0 0.0
2018-Mar-04 22:58N 26°05' W 080°07'0 0.0
2018-Mar-04 22:28N 26°05' W 080°07'0 0.0
2018-Mar-04 21:58N 26°05' W 080°07'0 0.0
2018-Mar-04 21:28N 26°05' W 080°07'0 0.0
2018-Mar-04 20:58N 26°05' W 080°07'0 0.0
2018-Mar-04 20:28N 26°05' W 080°07'0 0.0
2018-Mar-04 19:58N 26°05' W 080°07'0 0.0
2018-Mar-04 19:28N 26°05' W 080°07'0 0.0
2018-Mar-04 18:58N 26°05' W 080°07'0 0.0
2018-Mar-04 18:28N 26°05' W 080°07'0 0.0
2018-Mar-04 17:58N 26°05' W 080°07'0 0.0
2018-Mar-04 17:28N 26°05' W 080°07'0 0.0
2018-Mar-04 16:58N 26°05' W 080°07'0 0.0
2018-Mar-04 16:28N 26°05' W 080°07'0 0.0
2018-Mar-04 15:58N 26°05' W 080°07'0 0.0
2018-Mar-04 15:28N 26°05' W 080°07'0 0.0
2018-Mar-04 14:58N 26°05' W 080°07'0 0.0
2018-Mar-04 14:30N 26°05' W 080°07'1 1.7
2018-Mar-04 14:00N 26°06' W 080°06'4 8.6
2018-Mar-04 13:30N 26°06' W 080°02'2 3.0
2018-Mar-04 13:00N 26°06' W 079°60'510.4
2018-Mar-04 12:30N 26°03' W 079°55'612.0
2018-Mar-04 12:00N 25°58' W 079°52'1 2.9
2018-Mar-04 11:30N 25°57' W 079°53'2 4.3
2018-Mar-04 11:00N 25°59' W 079°54'2 4.3
2018-Mar-04 10:30N 26°01' W 079°56'2 4.4
2018-Mar-04 09:59N 26°03' W 079°57'2 4.1
2018-Mar-04 09:31N 26°04' W 079°58'3 5.2
2018-Mar-04 09:00N 26°02' W 079°59'3 5.2
2018-Mar-04 08:30N 25°59' W 079°59'3 5.2
2018-Mar-04 08:00N 25°56' W 079°60'4 8.3
2018-Mar-04 07:30N 25°52' W 079°58'612.5
2018-Mar-04 07:01N 25°46' W 079°57'713.3
2018-Mar-04 06:30N 25°40' W 079°55'713.0
2018-Mar-04 06:01N 25°33' W 079°54'713.2
2018-Mar-04 05:30N 25°27' W 079°54'  
2018-Feb-25 19:12N 28°09' W 094°25'314.4
2018-Feb-25 19:00N 28°12' W 094°25'814.2
2018-Feb-25 18:25N 28°20' W 094°25'6312.3
2018-Feb-25 13:19N 29°21' W 094°45'413.1
2018-Feb-25 13:01N 29°23' W 094°49'713.6
2018-Feb-25 12:30N 29°29' W 094°52'612.4
2018-Feb-25 12:00N 29°34' W 094°56'611.0
2018-Feb-25 11:29N 29°40' W 094°58'5 9.8
2018-Feb-25 11:00N 29°44' W 095°01'4 7.9
2018-Feb-25 10:30N 29°46' W 095°05'3 5.8
2018-Feb-25 10:00N 29°44' W 095°08'3 5.5
2018-Feb-25 09:30N 29°45' W 095°11'  
Track history (hours):
 
Tides and Currents Weather Stations Pressure Air Temp Water Temp Dewpoint Dewpoint Depression Visibility Wind Speed Wind Dir Waves Ship Positions

Seabulk Trader

Owner: Seabulk Tankers Inc, Fort Lauderdale, FL. More information available from US FCC via Universal Licensing System and Coast Guard Vessel Documentation Center.

Last reported at 2018-Mar-05 21:20 UTC. Time now 2018-Jun-18 13:00 UTC.
Position N 26°21' W 079°24'.
Warning: this ship's position is months out of date.

Type: Tanker. MMSI: 303105000.

Date/timePositionNaut miles runAvg speedWind from/ knotsBaromVisibWave heightAir tempDewpointWater temp
2018-Mar-05 21:20N 26°21' W 079°24'515.5
2018-Mar-05 21:00N 26°19' W 079°29'815.5
2018-Mar-05 20:31N 26°17' W 079°37'815.4
2018-Mar-05 20:01N 26°14' W 079°45'815.3
2018-Mar-05 19:30N 26°10' W 079°53'714.1
2018-Mar-05 19:00N 26°07' W 080°00'510.0
2018-Mar-05 18:31N 26°06' W 080°05'2 3.5
2018-Mar-05 17:59N 26°05' W 080°07'0 0.0
2018-Mar-05 17:29N 26°05' W 080°07'0 0.0
2018-Mar-05 16:59N 26°05' W 080°07'0 0.0
2018-Mar-05 16:29N 26°05' W 080°07'0 0.0
2018-Mar-05 15:59N 26°05' W 080°07'0 0.0
2018-Mar-05 15:29N 26°05' W 080°07'0 0.0
2018-Mar-05 14:59N 26°05' W 080°07'0 0.0
2018-Mar-05 14:29N 26°05' W 080°07'0 0.0
2018-Mar-05 13:59N 26°05' W 080°07'0 0.0
2018-Mar-05 13:29N 26°05' W 080°07'0 0.0
2018-Mar-05 12:59N 26°05' W 080°07'0 0.0
2018-Mar-05 12:29N 26°05' W 080°07'0 0.0
2018-Mar-05 11:59N 26°05' W 080°07'0 0.0
2018-Mar-05 11:29N 26°05' W 080°07'0 0.0
2018-Mar-05 10:53N 26°05' W 080°07'0 0.0
2018-Mar-05 10:29N 26°05' W 080°07'0 0.0
2018-Mar-05 09:53N 26°05' W 080°07'0 0.0
2018-Mar-05 09:29N 26°05' W 080°07'0 0.0
2018-Mar-05 08:53N 26°05' W 080°07'0 0.0
2018-Mar-05 08:23N 26°05' W 080°07'0 0.0
2018-Mar-05 07:53N 26°05' W 080°07'0 0.0
2018-Mar-05 07:23N 26°05' W 080°07'0 0.0
2018-Mar-05 06:50N 26°05' W 080°07'0 0.0
2018-Mar-05 06:25N 26°05' W 080°07'0 0.0
2018-Mar-05 05:55N 26°05' W 080°07'0 0.0
2018-Mar-05 05:28N 26°05' W 080°07'0 0.0
2018-Mar-05 04:58N 26°05' W 080°07'0 0.0
2018-Mar-05 04:29N 26°05' W 080°07'0 0.0
2018-Mar-05 03:58N 26°05' W 080°07'0 0.0
2018-Mar-05 03:28N 26°05' W 080°07'0 0.0
2018-Mar-05 02:58N 26°05' W 080°07'0 0.0
2018-Mar-05 02:28N 26°05' W 080°07'0 0.0
2018-Mar-05 01:58N 26°05' W 080°07'0 0.0
2018-Mar-05 01:28N 26°05' W 080°07'0 0.0
2018-Mar-05 00:58N 26°05' W 080°07'0 0.0
2018-Mar-05 00:25N 26°05' W 080°07'0 0.0
2018-Mar-04 23:58N 26°05' W 080°07'0 0.0
2018-Mar-04 23:28N 26°05' W 080°07'0 0.0
2018-Mar-04 22:58N 26°05' W 080°07'0 0.0
2018-Mar-04 22:28N 26°05' W 080°07'0 0.0
2018-Mar-04 21:58N 26°05' W 080°07'0 0.0
2018-Mar-04 21:28N 26°05' W 080°07'0 0.0
2018-Mar-04 20:58N 26°05' W 080°07'0 0.0
2018-Mar-04 20:28N 26°05' W 080°07'0 0.0
2018-Mar-04 19:58N 26°05' W 080°07'0 0.0
2018-Mar-04 19:28N 26°05' W 080°07'0 0.0
2018-Mar-04 18:58N 26°05' W 080°07'0 0.0
2018-Mar-04 18:28N 26°05' W 080°07'0 0.0
2018-Mar-04 17:58N 26°05' W 080°07'0 0.0
2018-Mar-04 17:28N 26°05' W 080°07'0 0.0
2018-Mar-04 16:58N 26°05' W 080°07'0 0.0
2018-Mar-04 16:28N 26°05' W 080°07'0 0.0
2018-Mar-04 15:58N 26°05' W 080°07'0 0.0
2018-Mar-04 15:28N 26°05' W 080°07'0 0.0
2018-Mar-04 14:58N 26°05' W 080°07'0 0.0
2018-Mar-04 14:30N 26°05' W 080°07'1 1.7
2018-Mar-04 14:00N 26°06' W 080°06'4 8.6
2018-Mar-04 13:30N 26°06' W 080°02'2 3.0
2018-Mar-04 13:00N 26°06' W 079°60'510.4
2018-Mar-04 12:30N 26°03' W 079°55'612.0
2018-Mar-04 12:00N 25°58' W 079°52'1 2.9
2018-Mar-04 11:30N 25°57' W 079°53'2 4.3
2018-Mar-04 11:00N 25°59' W 079°54'2 4.3
2018-Mar-04 10:30N 26°01' W 079°56'2 4.4
2018-Mar-04 09:59N 26°03' W 079°57'2 4.1
2018-Mar-04 09:31N 26°04' W 079°58'3 5.2
2018-Mar-04 09:00N 26°02' W 079°59'3 5.2
2018-Mar-04 08:30N 25°59' W 079°59'3 5.2
2018-Mar-04 08:00N 25°56' W 079°60'4 8.3
2018-Mar-04 07:30N 25°52' W 079°58'612.5
2018-Mar-04 07:01N 25°46' W 079°57'713.3
2018-Mar-04 06:30N 25°40' W 079°55'713.0
2018-Mar-04 06:01N 25°33' W 079°54'713.2
2018-Mar-04 05:30N 25°27' W 079°54'  
2018-Feb-25 19:12N 28°09' W 094°25'314.4
2018-Feb-25 19:00N 28°12' W 094°25'814.2
2018-Feb-25 18:25N 28°20' W 094°25'6312.3
2018-Feb-25 13:19N 29°21' W 094°45'413.1
2018-Feb-25 13:01N 29°23' W 094°49'713.6
2018-Feb-25 12:30N 29°29' W 094°52'612.4
2018-Feb-25 12:00N 29°34' W 094°56'611.0
2018-Feb-25 11:29N 29°40' W 094°58'5 9.8
2018-Feb-25 11:00N 29°44' W 095°01'4 7.9
2018-Feb-25 10:30N 29°46' W 095°05'3 5.8
2018-Feb-25 10:00N 29°44' W 095°08'3 5.5
2018-Feb-25 09:30N 29°45' W 095°11'  

Dump ship's entire track history